Terminal Aerodrome Forecast
Issued by NWS

Home | Current Version | Previous Version | Text Only | Print | Product List | Glossary On
Versions: 1 2 3 4 5 6 7 8 9 10 11 12
000
FTUS45 KPSR 052320
TAFIPL
TAF
KIPL 052320Z 0600/0624 35006KT P6SM SKC
     FM060300 27005KT P6SM SKC
     FM061800 35012KT P6SM SKC=

USA.gov is the U.S. government's official web portal to all federal, state and local government web resources and services.